createdAt,value
2023-04-27T00:01:38.685Z,60.36
2023-04-27T00:04:07.049Z,61.51
2023-04-27T00:06:34.694Z,60.69
2023-04-27T00:09:02.476Z,59.38
2023-04-27T00:11:29.437Z,58.36
2023-04-27T00:13:56.688Z,58.83
2023-04-27T00:16:23.814Z,58.93
2023-04-27T00:18:51.112Z,59.45
2023-04-27T00:21:18.734Z,58.32
2023-04-27T00:23:46.037Z,59.65
2023-04-27T00:26:12.999Z,58.64
2023-04-27T00:28:39.928Z,57.61
2023-04-27T00:31:06.894Z,57.40
2023-04-27T00:33:33.794Z,58.29
2023-04-27T00:36:04.448Z,60.38
2023-04-27T00:38:31.475Z,60.37
2023-04-27T00:41:06.349Z,60.50
2023-04-27T00:43:34.311Z,63.25
2023-04-27T00:46:01.380Z,61.16
2023-04-27T00:48:28.769Z,62.63
2023-04-27T00:50:56.041Z,62.19
2023-04-27T00:53:22.995Z,63.37
2023-04-27T00:55:49.925Z,63.88
2023-04-27T00:58:16.871Z,63.02
2023-04-27T01:00:44.186Z,61.69
2023-04-27T01:03:11.598Z,61.33
2023-04-27T01:05:39.473Z,62.99
2023-04-27T01:08:06.404Z,61.44
2023-04-27T01:10:33.451Z,61.40
2023-04-27T01:13:00.446Z,59.91
2023-04-27T01:15:27.877Z,62.21
2023-04-27T01:17:59.845Z,59.67
2023-04-27T01:20:30.636Z,58.28
2023-04-27T01:22:58.721Z,62.37
2023-04-27T01:25:26.397Z,60.59
2023-04-27T01:27:54.603Z,59.83
2023-04-27T01:30:22.874Z,58.97
2023-04-27T01:32:50.717Z,59.94
2023-04-27T01:35:18.050Z,59.20
2023-04-27T01:37:44.980Z,59.94
2023-04-27T01:40:13.351Z,60.78
2023-04-27T01:42:40.280Z,63.75
2023-04-27T01:45:07.854Z,64.83
2023-04-27T01:47:34.819Z,64.96
2023-04-27T01:50:01.928Z,66.33
2023-04-27T01:52:28.889Z,65.74
2023-04-27T01:54:55.890Z,67.35
2023-04-27T01:57:22.876Z,66.89
2023-04-27T01:59:49.808Z,65.03
2023-04-27T02:02:16.718Z,67.00
2023-04-27T02:04:45.367Z,64.67
2023-04-27T02:07:12.602Z,66.04
2023-04-27T02:09:39.574Z,65.37
2023-04-27T02:12:06.609Z,65.69
2023-04-27T02:14:33.495Z,67.00
2023-04-27T02:17:00.613Z,66.99
2023-04-27T02:19:27.764Z,66.57
2023-04-27T02:21:54.946Z,66.73
2023-04-27T02:24:21.848Z,66.95
2023-04-27T02:26:48.860Z,64.10
2023-04-27T02:29:17.088Z,63.49
2023-04-27T02:31:44.815Z,61.95
2023-04-27T02:34:11.772Z,61.80
2023-04-27T02:36:38.717Z,61.09
2023-04-27T02:39:05.937Z,62.88
2023-04-27T02:41:33.127Z,65.80
2023-04-27T02:44:00.125Z,65.44
2023-04-27T02:46:27.645Z,66.46
2023-04-27T02:48:56.298Z,67.12
2023-04-27T02:51:23.285Z,70.08
2023-04-27T02:53:50.312Z,71.43
2023-04-27T02:56:17.276Z,70.32
2023-04-27T02:58:45.085Z,68.70
2023-04-27T03:01:12.085Z,68.77
2023-04-27T03:03:39.356Z,69.04
2023-04-27T03:06:06.653Z,69.02
2023-04-27T03:08:33.544Z,69.45
2023-04-27T03:11:00.657Z,70.16
2023-04-27T03:13:28.406Z,69.34
2023-04-27T03:15:55.527Z,70.29
2023-04-27T03:18:22.482Z,69.55
2023-04-27T03:20:49.424Z,67.88
2023-04-27T03:23:16.370Z,66.86
2023-04-27T03:25:43.261Z,66.26
2023-04-27T03:28:10.203Z,66.81
2023-04-27T03:30:39.888Z,67.97
2023-04-27T03:33:06.809Z,67.82
2023-04-27T03:35:33.789Z,65.90
2023-04-27T03:38:00.736Z,68.43
2023-04-27T03:40:27.683Z,71.48
2023-04-27T03:42:54.550Z,73.11
2023-04-27T03:45:22.623Z,73.17
2023-04-27T03:47:49.567Z,71.97
2023-04-27T03:50:16.650Z,72.68
2023-04-27T03:52:43.582Z,73.03
2023-04-27T03:55:10.988Z,73.39
2023-04-27T03:57:37.856Z,72.13
2023-04-27T04:00:08.155Z,71.78
2023-04-27T04:02:35.225Z,73.49
2023-04-27T04:05:02.296Z,76.61
2023-04-27T04:07:29.293Z,75.34
2023-04-27T04:09:56.407Z,75.25
2023-04-27T04:12:23.421Z,75.80
2023-04-27T04:14:50.511Z,72.87
2023-04-27T04:17:17.552Z,70.37
2023-04-27T04:19:44.582Z,69.75
2023-04-27T04:22:12.246Z,68.45
2023-04-27T04:24:40.421Z,65.15
2023-04-27T04:27:07.408Z,64.29
2023-04-27T04:29:34.530Z,63.72
2023-04-27T04:32:01.525Z,61.31
2023-04-27T04:34:29.577Z,60.94
2023-04-27T04:36:57.954Z,62.83
2023-04-27T04:39:24.900Z,62.83
2023-04-27T04:41:51.931Z,62.19
2023-04-27T04:44:20.550Z,63.33
2023-04-27T04:46:47.559Z,62.46
2023-04-27T04:49:14.693Z,59.19
2023-04-27T04:51:45.890Z,56.09
2023-04-27T04:54:12.902Z,54.98
2023-04-27T04:56:39.786Z,52.99
2023-04-27T04:59:06.864Z,55.40
2023-04-27T05:01:33.925Z,56.70
2023-04-27T05:04:01.232Z,57.78
2023-04-27T05:06:28.597Z,54.78
2023-04-27T05:08:55.542Z,57.10
2023-04-27T05:11:22.707Z,56.32
2023-04-27T05:13:49.598Z,55.94
2023-04-27T05:16:16.555Z,57.34
2023-04-27T05:18:43.499Z,57.00
2023-04-27T05:21:17.915Z,58.64
2023-04-27T05:23:44.865Z,59.37
2023-04-27T05:26:16.698Z,59.20
2023-04-27T05:28:43.782Z,59.31
2023-04-27T05:31:11.005Z,59.61
2023-04-27T05:33:37.997Z,61.03
2023-04-27T05:36:05.956Z,61.65
2023-04-27T05:38:35.044Z,62.52
2023-04-27T05:41:02.326Z,61.69
2023-04-27T05:43:29.338Z,60.85
2023-04-27T05:45:56.589Z,60.80
2023-04-27T05:48:24.125Z,58.86
2023-04-27T05:51:00.048Z,58.03
2023-04-27T05:53:27.057Z,55.52
2023-04-27T05:55:54.170Z,53.98
2023-04-27T05:58:21.130Z,54.92
2023-04-27T06:00:48.078Z,55.88
2023-04-27T06:03:15.280Z,58.11
2023-04-27T06:05:42.637Z,55.42
2023-04-27T06:08:09.577Z,55.61
2023-04-27T06:10:37.080Z,56.16
2023-04-27T06:13:03.976Z,52.93
2023-04-27T06:15:30.949Z,50.75
2023-04-27T06:17:58.010Z,45.72
2023-04-27T06:20:25.039Z,43.89
2023-04-27T06:22:51.996Z,44.70
2023-04-27T06:25:18.991Z,43.39
2023-04-27T06:27:46.224Z,39.35
2023-04-27T06:30:13.422Z,41.48
2023-04-27T06:32:41.608Z,40.00
2023-04-27T06:35:09.123Z,38.21
2023-04-27T06:37:36.190Z,38.01
2023-04-27T06:40:04.225Z,36.96
2023-04-27T06:42:31.246Z,35.49
2023-04-27T06:44:58.970Z,36.35
2023-04-27T06:47:26.019Z,35.97
2023-04-27T06:49:53.030Z,38.37
2023-04-27T06:52:19.969Z,36.86
2023-04-27T06:54:47.147Z,35.52
2023-04-27T06:57:14.106Z,34.89
2023-04-27T06:59:41.104Z,34.39
2023-04-27T07:02:08.237Z,34.55
2023-04-27T07:04:35.193Z,32.79
2023-04-27T07:07:02.278Z,30.73
2023-04-27T07:09:29.418Z,30.01
2023-04-27T07:12:00.587Z,28.82
2023-04-27T07:14:27.632Z,29.31
2023-04-27T07:17:10.469Z,28.73
2023-04-27T07:19:46.237Z,29.63
2023-04-27T07:22:13.694Z,27.19
2023-04-27T07:24:40.559Z,26.82
2023-04-27T07:27:07.645Z,26.05
2023-04-27T07:29:34.708Z,25.59
2023-04-27T07:32:02.114Z,24.17
2023-04-27T07:34:41.195Z,23.97
2023-04-27T07:37:17.781Z,24.16
2023-04-27T07:39:44.771Z,23.53
2023-04-27T07:42:12.891Z,22.21
2023-04-27T07:44:41.042Z,26.69
2023-04-27T07:47:09.162Z,25.50
2023-04-27T07:49:37.768Z,23.11
2023-04-27T07:52:05.076Z,23.06
2023-04-27T07:54:32.132Z,24.36
2023-04-27T07:56:59.133Z,24.37
2023-04-27T07:59:29.444Z,24.63
2023-04-27T08:02:07.084Z,26.11
2023-04-27T08:04:43.849Z,23.80
2023-04-27T08:07:11.895Z,24.45
2023-04-27T08:09:41.494Z,22.86
2023-04-27T08:12:24.319Z,21.84
2023-04-27T08:14:53.062Z,22.17
2023-04-27T08:17:25.016Z,21.37
2023-04-27T08:19:52.126Z,25.45
2023-04-27T08:22:20.472Z,23.52
2023-04-27T08:24:51.402Z,23.74
2023-04-27T08:27:33.045Z,23.13
2023-04-27T08:30:01.275Z,27.01
2023-04-27T08:32:28.699Z,23.86
2023-04-27T08:34:56.094Z,23.49
2023-04-27T08:37:23.064Z,26.06
2023-04-27T08:39:50.018Z,23.72
2023-04-27T08:42:17.007Z,25.04
2023-04-27T08:44:44.965Z,23.83
2023-04-27T08:47:12.533Z,21.55
2023-04-27T08:49:41.642Z,21.64
2023-04-27T08:52:15.627Z,22.77
2023-04-27T08:54:43.546Z,24.15
2023-04-27T08:57:14.814Z,22.42
2023-04-27T08:59:41.862Z,21.99
2023-04-27T09:02:20.789Z,22.99
2023-04-27T09:04:48.325Z,21.83
2023-04-27T09:07:17.361Z,24.24
2023-04-27T09:09:45.352Z,23.14
2023-04-27T09:12:22.265Z,22.81
2023-04-27T09:14:59.744Z,23.59
2023-04-27T09:17:28.450Z,22.96
2023-04-27T09:20:09.310Z,22.59
2023-04-27T09:22:55.278Z,25.15
2023-04-27T09:25:29.444Z,26.75
2023-04-27T09:27:58.989Z,25.35
2023-04-27T09:30:26.989Z,28.12
2023-04-27T09:33:04.368Z,23.36
2023-04-27T09:35:33.387Z,24.13
2023-04-27T09:38:01.131Z,23.08
2023-04-27T09:40:32.399Z,23.52
2023-04-27T09:43:04.104Z,25.37
2023-04-27T09:45:33.687Z,26.53
2023-04-27T09:48:02.280Z,21.98
2023-04-27T09:50:29.432Z,21.22
2023-04-27T09:52:57.421Z,22.18
2023-04-27T09:55:28.792Z,24.37
2023-04-27T09:58:14.345Z,25.66
2023-04-27T10:00:57.819Z,22.37
2023-04-27T10:03:48.029Z,21.68
2023-04-27T10:06:52.884Z,20.63
2023-04-27T10:09:26.949Z,23.65
2023-04-27T10:11:55.397Z,24.28
2023-04-27T10:14:24.662Z,22.80
2023-04-27T10:16:57.200Z,23.20
2023-04-27T10:19:26.311Z,21.81
2023-04-27T10:22:06.803Z,24.05
2023-04-27T10:24:42.984Z,21.10
2023-04-27T10:27:20.223Z,20.66
2023-04-27T10:29:48.172Z,22.79
2023-04-27T10:32:26.377Z,22.25
2023-04-27T10:35:09.695Z,21.12
2023-04-27T10:37:43.760Z,19.81
2023-04-27T10:40:17.997Z,19.66
2023-04-27T10:42:46.787Z,18.23
2023-04-27T10:45:14.206Z,18.99
2023-04-27T10:47:43.940Z,21.60
2023-04-27T10:50:13.977Z,20.72
2023-04-27T10:52:47.047Z,20.23
2023-04-27T10:55:17.803Z,21.54
2023-04-27T10:57:48.601Z,20.45
2023-04-27T11:00:23.777Z,20.50
2023-04-27T11:02:51.179Z,20.34
2023-04-27T11:05:19.910Z,19.82
2023-04-27T11:07:49.975Z,19.39
2023-04-27T11:10:18.775Z,21.36
2023-04-27T11:12:46.925Z,21.13
2023-04-27T11:15:14.561Z,20.49
2023-04-27T11:17:41.985Z,19.90
2023-04-27T11:20:09.935Z,20.05
2023-04-27T11:22:47.195Z,21.32
2023-04-27T11:25:14.428Z,20.72
2023-04-27T11:27:42.400Z,21.01
2023-04-27T11:30:29.732Z,21.47
2023-04-27T11:32:57.934Z,21.19
2023-04-27T11:35:37.708Z,23.85
2023-04-27T11:38:04.688Z,21.44
2023-04-27T11:40:32.574Z,20.94
2023-04-27T11:43:00.415Z,22.36
2023-04-27T11:45:28.337Z,22.84
2023-04-27T11:47:56.020Z,23.86
2023-04-27T11:50:26.071Z,22.79
2023-04-27T11:52:53.541Z,22.71
2023-04-27T11:55:26.214Z,23.53
2023-04-27T11:58:00.063Z,25.74
2023-04-27T12:00:27.125Z,24.91
2023-04-27T12:02:54.441Z,28.02
2023-04-27T12:05:22.033Z,25.45
2023-04-27T12:07:49.027Z,24.64
2023-04-27T12:10:16.167Z,24.65
2023-04-27T12:12:43.164Z,25.41
2023-04-27T12:15:13.696Z,25.37
2023-04-27T12:17:40.701Z,24.91
2023-04-27T12:20:08.704Z,22.27
2023-04-27T12:22:35.730Z,23.01
2023-04-27T12:25:02.924Z,24.09
2023-04-27T12:27:30.044Z,23.62
2023-04-27T12:29:59.963Z,24.87
2023-04-27T12:32:28.338Z,23.34
2023-04-27T12:34:55.626Z,23.22
2023-04-27T12:37:24.863Z,23.98
2023-04-27T12:39:53.996Z,26.06
2023-04-27T12:42:24.507Z,25.82
2023-04-27T12:44:52.679Z,25.46
2023-04-27T12:47:45.759Z,26.79
2023-04-27T12:50:10.959Z,26.91
2023-04-27T12:52:38.440Z,27.38
2023-04-27T12:55:28.939Z,27.80
2023-04-27T12:58:03.756Z,28.62
2023-04-27T13:00:31.414Z,26.59
2023-04-27T13:02:58.794Z,27.26
2023-04-27T13:05:31.746Z,25.89
2023-04-27T13:08:01.330Z,26.02
2023-04-27T13:10:29.867Z,27.70
2023-04-27T13:12:56.900Z,26.26
2023-04-27T13:15:24.313Z,28.12
2023-04-27T13:17:53.473Z,25.75
2023-04-27T13:20:21.109Z,27.56
2023-04-27T13:22:48.634Z,25.64
2023-04-27T13:25:16.851Z,27.33
2023-04-27T13:27:44.111Z,23.94
2023-04-27T13:30:11.304Z,23.76
2023-04-27T13:32:38.414Z,22.90
2023-04-27T13:35:05.884Z,24.27
2023-04-27T13:37:32.842Z,23.74
2023-04-27T13:40:00.202Z,24.31
2023-04-27T13:42:29.751Z,26.54
2023-04-27T13:44:59.464Z,27.01
2023-04-27T13:47:26.336Z,27.21
2023-04-27T13:49:53.527Z,28.92
2023-04-27T13:52:20.669Z,27.82
2023-04-27T13:54:47.877Z,27.15
2023-04-27T13:57:14.842Z,27.51
2023-04-27T13:59:41.824Z,26.84
2023-04-27T14:02:09.322Z,26.39
2023-04-27T14:04:36.558Z,25.72
2023-04-27T14:07:03.547Z,25.19
2023-04-27T14:12:42.395Z,28.29
2023-04-27T14:15:09.823Z,28.99
2023-04-27T14:17:37.041Z,27.85
2023-04-27T14:20:07.161Z,27.78
2023-04-27T14:22:35.161Z,27.50
2023-04-27T14:25:02.515Z,27.64
2023-04-27T14:27:29.884Z,28.98
2023-04-27T14:29:56.890Z,28.35
2023-04-27T14:32:24.008Z,27.27
2023-04-27T14:34:51.194Z,27.21
2023-04-27T14:37:18.152Z,25.70
2023-04-27T14:39:46.162Z,26.12
2023-04-27T14:42:13.125Z,26.50
2023-04-27T14:44:40.179Z,27.57
2023-04-27T14:47:07.240Z,28.09
2023-04-27T14:49:34.278Z,28.86
2023-04-27T14:52:04.308Z,27.98
2023-04-27T14:54:31.309Z,28.08
2023-04-27T14:56:59.062Z,29.00
2023-04-27T14:59:26.133Z,27.17
2023-04-27T15:01:53.467Z,26.82
2023-04-27T15:04:21.036Z,26.36
2023-04-27T15:06:48.128Z,26.78
2023-04-27T15:09:15.391Z,29.10
2023-04-27T15:11:42.647Z,28.82
2023-04-27T15:14:09.672Z,26.22
2023-04-27T15:16:36.653Z,25.66
2023-04-27T15:19:03.967Z,28.03
2023-04-27T15:21:31.660Z,26.60
2023-04-27T15:23:58.650Z,26.60
2023-04-27T15:26:27.240Z,25.88
2023-04-27T15:28:55.190Z,27.54
2023-04-27T15:31:22.360Z,26.84
2023-04-27T15:33:49.431Z,27.19
2023-04-27T15:36:17.720Z,29.59
2023-04-27T15:38:44.801Z,30.68
2023-04-27T15:41:12.208Z,29.91
2023-04-27T15:43:39.200Z,30.21
2023-04-27T15:46:06.796Z,28.90
2023-04-27T15:48:33.892Z,28.98
2023-04-27T15:51:00.998Z,29.91
2023-04-27T15:53:28.210Z,29.59
2023-04-27T15:55:55.324Z,30.18
2023-04-27T15:58:22.327Z,30.71
2023-04-27T16:00:49.262Z,31.03
2023-04-27T16:03:16.673Z,31.27
2023-04-27T16:05:44.498Z,33.37
2023-04-27T16:08:11.656Z,30.73
2023-04-27T16:10:38.667Z,30.45
2023-04-27T16:13:05.636Z,29.59
2023-04-27T16:15:32.544Z,29.13
2023-04-27T16:17:59.549Z,29.55
2023-04-27T16:20:29.138Z,29.83
2023-04-27T16:22:56.477Z,30.34
2023-04-27T16:25:23.419Z,30.16
2023-04-27T16:27:51.513Z,30.17
2023-04-27T16:30:18.849Z,31.24
2023-04-27T16:32:45.875Z,30.89
2023-04-27T16:35:13.062Z,32.04
2023-04-27T16:37:40.045Z,30.56
2023-04-27T16:40:08.476Z,32.13
2023-04-27T16:42:35.757Z,32.13
2023-04-27T16:45:02.976Z,33.12
2023-04-27T16:47:31.760Z,33.16
2023-04-27T16:49:58.779Z,33.07
2023-04-27T16:52:26.100Z,34.17
2023-04-27T16:54:53.747Z,34.42
2023-04-27T16:57:20.773Z,33.91
2023-04-27T16:59:47.823Z,34.05
2023-04-27T17:02:24.608Z,33.04
2023-04-27T17:04:53.182Z,33.55
2023-04-27T17:07:20.245Z,34.29
2023-04-27T17:09:47.209Z,34.24
2023-04-27T17:12:15.802Z,34.31
2023-04-27T17:14:42.964Z,33.66
2023-04-27T17:17:11.135Z,34.90
2023-04-27T17:19:39.268Z,33.97
2023-04-27T17:22:08.828Z,34.55
2023-04-27T17:24:35.941Z,35.04
2023-04-27T17:27:04.484Z,34.06
2023-04-27T17:29:32.065Z,34.93
2023-04-27T17:31:59.166Z,35.16
2023-04-27T17:34:26.221Z,34.77
2023-04-27T17:36:53.320Z,33.73
2023-04-27T17:39:22.874Z,33.27
2023-04-27T17:41:49.788Z,33.15
2023-04-27T17:44:17.432Z,33.86
2023-04-27T17:46:49.256Z,35.18
2023-04-27T17:49:17.566Z,35.57
2023-04-27T17:51:48.619Z,35.15
2023-04-27T17:54:15.820Z,34.79
2023-04-27T17:56:43.141Z,34.28
2023-04-27T17:59:10.135Z,35.68
2023-04-27T18:01:37.212Z,35.97
2023-04-27T18:04:06.912Z,36.88
2023-04-27T18:06:34.416Z,36.81
2023-04-27T18:09:01.607Z,37.38
2023-04-27T18:11:29.205Z,37.34
2023-04-27T18:13:58.329Z,39.94
2023-04-27T18:16:25.889Z,40.39
2023-04-27T18:18:52.995Z,41.35
2023-04-27T18:21:20.090Z,41.67
2023-04-27T18:23:47.108Z,42.62
2023-04-27T18:26:14.204Z,42.73
2023-04-27T18:28:42.228Z,42.77
2023-04-27T18:31:17.021Z,40.46
2023-04-27T18:33:45.102Z,39.16
2023-04-27T18:36:12.268Z,38.96
2023-04-27T18:38:39.274Z,38.40
2023-04-27T18:41:06.363Z,39.48
2023-04-27T18:43:36.907Z,39.31
2023-04-27T18:46:04.925Z,38.31
2023-04-27T18:48:32.684Z,39.19
2023-04-27T18:50:59.749Z,40.21
2023-04-27T18:53:28.200Z,40.39
2023-04-27T18:55:55.569Z,40.22
2023-04-27T18:58:22.541Z,42.10
2023-04-27T19:00:49.562Z,40.81
2023-04-27T19:03:16.805Z,41.69
2023-04-27T19:05:44.344Z,41.13
2023-04-27T19:08:11.521Z,43.19
2023-04-27T19:10:41.369Z,43.95
2023-04-27T19:13:08.341Z,44.35
2023-04-27T19:15:35.304Z,44.38
2023-04-27T19:18:10.008Z,44.71
2023-04-27T19:20:38.820Z,44.82
2023-04-27T19:23:05.984Z,46.59
2023-04-27T19:25:32.923Z,45.85
2023-04-27T19:28:00.548Z,47.62
2023-04-27T19:30:27.901Z,46.98
2023-04-27T19:32:54.978Z,46.98
2023-04-27T19:35:24.046Z,47.24
2023-04-27T19:37:51.479Z,47.87
2023-04-27T19:40:18.719Z,46.56
2023-04-27T19:42:45.865Z,46.12
2023-04-27T19:45:12.967Z,45.74
2023-04-27T19:47:40.153Z,44.57
2023-04-27T19:50:07.611Z,44.27
2023-04-27T19:52:34.563Z,45.77
2023-04-27T19:55:01.595Z,46.67
2023-04-27T19:57:28.829Z,46.46
2023-04-27T19:59:55.918Z,49.54
2023-04-27T20:02:23.194Z,49.23
2023-04-27T20:04:50.718Z,49.47
2023-04-27T20:07:18.087Z,49.72
2023-04-27T20:09:44.990Z,51.16
2023-04-27T20:12:28.863Z,48.48
2023-04-27T20:14:58.880Z,47.81
2023-04-27T20:17:29.131Z,47.44
2023-04-27T20:19:56.614Z,46.32
2023-04-27T20:22:23.877Z,46.25
2023-04-27T20:24:50.934Z,47.46
2023-04-27T20:27:17.921Z,47.80
2023-04-27T20:29:46.878Z,53.04
2023-04-27T20:32:13.902Z,52.26
2023-04-27T20:34:40.904Z,52.33
2023-04-27T20:37:07.887Z,53.55
2023-04-27T20:39:35.315Z,52.15
2023-04-27T20:42:02.542Z,50.27
2023-04-27T20:44:29.500Z,49.77
2023-04-27T20:46:56.662Z,51.46
2023-04-27T20:49:32.122Z,49.51
2023-04-27T20:52:02.419Z,49.77
2023-04-27T20:54:32.908Z,47.67
2023-04-27T20:57:03.197Z,49.25
2023-04-27T20:59:30.129Z,52.71
2023-04-27T21:01:57.281Z,51.89
2023-04-27T21:04:24.265Z,53.29
2023-04-27T21:06:51.269Z,54.16
2023-04-27T21:09:18.221Z,55.43
2023-04-27T21:11:45.148Z,57.87
2023-04-27T21:14:12.238Z,59.35
2023-04-27T21:16:39.167Z,58.16
2023-04-27T21:19:06.743Z,58.33
2023-04-27T21:21:33.926Z,58.11
2023-04-27T21:24:07.826Z,57.98
2023-04-27T21:26:35.480Z,57.94
2023-04-27T21:29:05.737Z,57.00
2023-04-27T21:31:33.785Z,57.38
2023-04-27T21:34:01.086Z,57.39
2023-04-27T21:36:28.287Z,56.71
2023-04-27T21:38:55.421Z,55.64
2023-04-27T21:41:22.402Z,55.96
2023-04-27T21:43:49.376Z,56.72
2023-04-27T21:46:16.337Z,56.72
2023-04-27T21:48:43.270Z,56.28
2023-04-27T21:51:10.181Z,53.46
2023-04-27T21:53:37.463Z,53.21
2023-04-27T21:56:04.507Z,54.37
2023-04-27T21:58:31.466Z,54.45
2023-04-27T22:00:58.680Z,53.72
2023-04-27T22:03:26.333Z,55.41
2023-04-27T22:05:54.245Z,54.84
2023-04-27T22:08:22.014Z,55.77
2023-04-27T22:10:48.970Z,55.67
2023-04-27T22:13:19.209Z,54.52
2023-04-27T22:15:47.339Z,54.54
2023-04-27T22:18:15.721Z,54.99
2023-04-27T22:20:43.118Z,53.78
2023-04-27T22:23:10.530Z,55.86
2023-04-27T22:25:37.824Z,56.06
2023-04-27T22:28:04.898Z,56.31
2023-04-27T22:30:31.864Z,56.12
2023-04-27T22:32:58.864Z,58.26
2023-04-27T22:35:27.899Z,57.59
2023-04-27T22:37:59.862Z,56.00
2023-04-27T22:40:26.949Z,57.06
2023-04-27T22:42:55.280Z,56.51
2023-04-27T22:45:23.493Z,55.67
2023-04-27T22:47:50.609Z,55.78
2023-04-27T22:50:17.866Z,55.05
2023-04-27T22:52:45.200Z,56.68
2023-04-27T22:55:12.970Z,56.78
2023-04-27T22:57:41.399Z,56.01
2023-04-27T23:00:11.733Z,56.74
2023-04-27T23:02:40.524Z,55.35
2023-04-27T23:05:09.081Z,53.83
2023-04-27T23:07:36.401Z,55.17
2023-04-27T23:10:03.806Z,57.64
2023-04-27T23:12:31.581Z,57.56
2023-04-27T23:14:59.166Z,57.72
2023-04-27T23:17:32.408Z,57.86
2023-04-27T23:20:13.768Z,57.21
2023-04-27T23:22:44.216Z,57.62
2023-04-27T23:25:11.581Z,57.56
2023-04-27T23:27:38.589Z,57.85
2023-04-27T23:30:06.159Z,57.14
2023-04-27T23:32:33.613Z,62.23
2023-04-27T23:35:00.623Z,64.47
2023-04-27T23:37:27.919Z,62.80
2023-04-27T23:39:54.863Z,61.07
2023-04-27T23:42:21.940Z,60.77
2023-04-27T23:44:48.898Z,61.00
2023-04-27T23:47:16.017Z,60.21
2023-04-27T23:49:45.878Z,58.38
2023-04-27T23:52:12.895Z,58.92
2023-04-27T23:54:39.774Z,60.62
2023-04-27T23:57:06.964Z,61.61
2023-04-27T23:59:35.376Z,64.48
